DEMEC EDVK-EDVK

Flight info

Callsign DEMEC
Flight time 0h 15m
Altitude
Route DCT
Aircraft PA28

Departure

Time 2026-05-05 14:32
Airport Kassel Airport (EDVK)

Arrival

Time 2026-05-05 14:48
Airport Kassel Airport (EDVK)
Time Latitude Longitude Altitude Speed Heading
2026-05-05 14:26 51.41724 9.39623 838 ft 0 kts 276°
2026-05-05 14:27 51.41727 9.39616 838 ft 5 kts 327°
2026-05-05 14:28 51.41776 9.39671 838 ft 14 kts 83°
2026-05-05 14:28 51.41823 9.39774 838 ft 14 kts 352°
2026-05-05 14:28 51.41891 9.39740 839 ft 10 kts 283°
2026-05-05 14:28 51.41897 9.39627 840 ft 13 kts 274°
2026-05-05 14:29 51.41906 9.39456 842 ft 18 kts 275°
2026-05-05 14:29 51.41919 9.39233 844 ft 22 kts 275°
2026-05-05 14:29 51.41932 9.38989 847 ft 22 kts 275°
2026-05-05 14:29 51.41984 9.38873 847 ft 13 kts
2026-05-05 14:30 51.42007 9.38876 847 ft 0 kts
2026-05-05 14:31 51.42031 9.38879 847 ft 10 kts
2026-05-05 14:31 51.42091 9.38985 844 ft 22 kts 95°
2026-05-05 14:31 51.42063 9.39471 867 ft 60 kts 90°
2026-05-05 14:32 51.42017 9.40150 1030 ft 62 kts 91°
2026-05-05 14:32 51.41989 9.40875 1215 ft 63 kts 86°
2026-05-05 14:32 51.42004 9.41596 1446 ft 60 kts 79°
2026-05-05 14:32 51.42051 9.42289 1625 ft 64 kts 80°
2026-05-05 14:33 51.41864 9.42974 1751 ft 78 kts 137°
2026-05-05 14:33 51.41316 9.43117 1975 ft 82 kts 170°
2026-05-05 14:33 51.40741 9.43201 2128 ft 84 kts 174°
2026-05-05 14:33 51.40152 9.43160 2276 ft 86 kts 178°
2026-05-05 14:34 51.39560 9.43150 2444 ft 90 kts 176°
2026-05-05 14:34 51.38981 9.42766 2536 ft 96 kts 229°
2026-05-05 14:34 51.38850 9.41733 2623 ft 96 kts 275°
2026-05-05 14:34 51.38876 9.40655 2727 ft 98 kts 276°
2026-05-05 14:35 51.38919 9.39569 2848 ft 97 kts 277°
2026-05-05 14:35 51.38974 9.38469 2937 ft 101 kts 278°
2026-05-05 14:35 51.39042 9.37322 3002 ft 105 kts 279°
2026-05-05 14:35 51.39124 9.36134 3046 ft 111 kts 278°
2026-05-05 14:36 51.39207 9.34909 3058 ft 108 kts 278°
2026-05-05 14:36 51.39301 9.33728 3078 ft 103 kts 281°
2026-05-05 14:36 51.39682 9.32931 2915 ft 89 kts 344°
2026-05-05 14:36 51.40298 9.32904 2647 ft 87 kts
2026-05-05 14:37 51.40879 9.32957 2433 ft 82 kts
2026-05-05 14:37 51.41453 9.33032 2307 ft 83 kts
2026-05-05 14:37 51.42023 9.33136 2159 ft 80 kts 11°
2026-05-05 14:37 51.42398 9.33616 1962 ft 83 kts 81°
2026-05-05 14:38 51.42310 9.34560 1611 ft 79 kts 100°
2026-05-05 14:38 51.42268 9.35467 1263 ft 82 kts 89°
2026-05-05 14:38 51.42236 9.36332 1084 ft 75 kts 90°
2026-05-05 14:38 51.42189 9.37152 935 ft 71 kts 92°
2026-05-05 14:39 51.42149 9.37884 859 ft 55 kts 91°
2026-05-05 14:39 51.42121 9.38435 857 ft 56 kts 88°
2026-05-05 14:39 51.42086 9.39122 901 ft 69 kts 89°
2026-05-05 14:39 51.42031 9.39913 1111 ft 73 kts 91°
2026-05-05 14:40 51.41978 9.40709 1375 ft 74 kts 92°
2026-05-05 14:40 51.41922 9.41506 1706 ft 70 kts 89°
2026-05-05 14:40 51.41855 9.42285 1965 ft 72 kts 91°
2026-05-05 14:40 51.41762 9.43062 2222 ft 73 kts 106°
2026-05-05 14:41 51.41358 9.43570 2413 ft 84 kts 163°
2026-05-05 14:41 51.40758 9.43518 2560 ft 89 kts 181°
2026-05-05 14:41 51.40127 9.43434 2615 ft 92 kts 181°
2026-05-05 14:41 51.39478 9.43348 2680 ft 94 kts 180°
2026-05-05 14:42 51.38821 9.43248 2697 ft 96 kts 182°
2026-05-05 14:42 51.38181 9.42997 2751 ft 99 kts 216°
2026-05-05 14:42 51.38053 9.41979 2733 ft 102 kts 291°
2026-05-05 14:42 51.38186 9.40890 2811 ft 98 kts 282°
2026-05-05 14:43 51.38271 9.39810 2871 ft 99 kts 281°
2026-05-05 14:43 51.38345 9.38706 2860 ft 101 kts 279°
2026-05-05 14:43 51.38424 9.37640 2833 ft 94 kts 282°
2026-05-05 14:43 51.38495 9.36587 2748 ft 94 kts 281°
2026-05-05 14:44 51.38591 9.35573 2699 ft 91 kts 287°
2026-05-05 14:44 51.38760 9.34630 2653 ft 86 kts 291°
2026-05-05 14:44 51.38985 9.33755 2630 ft 83 kts 303°
2026-05-05 14:44 51.39423 9.33260 2571 ft 75 kts 358°
2026-05-05 14:45 51.39961 9.33322 2448 ft 76 kts
2026-05-05 14:45 51.40303 9.33375 2330 ft 73 kts
2026-05-05 14:45 51.40796 9.33435 2131 ft 69 kts
2026-05-05 14:45 51.41296 9.33438 1934 ft 74 kts
2026-05-05 14:46 51.41807 9.33481 1814 ft 71 kts 11°
2026-05-05 14:46 51.42269 9.33623 1790 ft 65 kts 22°
2026-05-05 14:46 51.42336 9.34316 1673 ft 74 kts 94°
2026-05-05 14:46 51.42301 9.35103 1486 ft 69 kts 88°
2026-05-05 14:47 51.42254 9.35866 1245 ft 67 kts 87°
2026-05-05 14:47 51.42219 9.36592 1033 ft 66 kts 91°
2026-05-05 14:47 51.42182 9.37290 919 ft 61 kts 90°
2026-05-05 14:47 51.42147 9.37940 856 ft 53 kts 89°
2026-05-05 14:48 51.42120 9.38450 846 ft 38 kts 95°
2026-05-05 14:48 51.42101 9.38796 842 ft 23 kts 94°
2026-05-05 14:48 51.42018 9.38876 847 ft 4 kts 185°
2026-05-05 14:49 51.41986 9.38872 847 ft 12 kts 185°
2026-05-05 14:49 51.41935 9.38942 848 ft 11 kts 97°
2026-05-05 14:49 51.41925 9.39101 846 ft 17 kts 97°
2026-05-05 14:49 51.41914 9.39316 844 ft 21 kts 95°
2026-05-05 14:50 51.41901 9.39564 841 ft 22 kts 96°
2026-05-05 14:50 51.41877 9.39776 837 ft 17 kts 147°
2026-05-05 14:50 51.41774 9.39749 834 ft 14 kts 244°
2026-05-05 14:50 51.41731 9.39675 838 ft 10 kts 199°
2026-05-05 14:51 51.41727 9.39620 838 ft 0 kts 275°